CPX792 Details

Departure: Auckland International Airport (NZAA)
Arrival: Kingsford Smith International Airport (YSSY)
Route: MADEP N774 MARLN


Current Weather Information
NZAA 212200Z AUTO 26003KT 9999 FEW028/// 16/11 Q1026 NOSIG
YSSY 212200Z 33007KT 9999 FEW030 17/11 Q1027 NOSIG